FAPD weather

Pofadder Airport
Pofadder, Northern Cape, South Africa

Public forecast

Using degrees Celsius for public forecast. Weather courtesy of forecast.io.

Closest aviation weather report (METAR) to Pofadder Airport

Report is more than 6 hours old.

Closest report is Karasburg Airport, 75.6 nm (140.1 km) NNW. Retrieved 2015/08/08 09:00 UTC (4 years ago):

FYKB 080900Z AUTO 34008KT //// // ////// 25/M03 Q1024

Closest aviation forecast (TAF) to Pofadder Airport

Closest forecast is Pierre Van Ryneveld Airport, 106.9 nm (198.1 km) ENE. Retrieved 2019-10-15 00:00 UTC (6 hours ago):

TAF FAUP 142200Z 1500/1524 21010KT CAVOK TX35/1513Z TN16/1504Z BECMG 1505/1507 16010KT BECMG 1510/1512 30008KT